createdAt,value
2023-05-10T00:00:23.600Z,8.80
2023-05-10T00:02:50.947Z,8.07
2023-05-10T00:05:17.993Z,7.93
2023-05-10T00:07:45.137Z,8.02
2023-05-10T00:10:12.811Z,8.57
2023-05-10T00:12:39.853Z,7.70
2023-05-10T00:15:07.700Z,8.10
2023-05-10T00:17:34.576Z,8.07
2023-05-10T00:20:01.577Z,9.50
2023-05-10T00:22:28.522Z,9.35
2023-05-10T00:24:55.387Z,9.60
2023-05-10T00:27:22.245Z,8.73
2023-05-10T00:29:49.118Z,8.35
2023-05-10T00:32:16.056Z,8.82
2023-05-10T00:34:43.060Z,8.52
2023-05-10T00:37:09.912Z,8.25
2023-05-10T00:39:36.744Z,8.70
2023-05-10T00:42:03.680Z,8.60
2023-05-10T00:44:30.709Z,8.15
2023-05-10T00:46:58.209Z,8.27
2023-05-10T00:49:25.057Z,8.00
2023-05-10T00:51:52.322Z,7.73
2023-05-10T00:54:19.263Z,8.02
2023-05-10T00:56:46.097Z,8.10
2023-05-10T00:59:12.960Z,8.18
2023-05-10T01:01:39.928Z,7.90
2023-05-10T01:04:06.884Z,8.60
2023-05-10T01:06:33.901Z,7.93
2023-05-10T01:09:00.837Z,8.05
2023-05-10T01:11:27.983Z,7.72
2023-05-10T01:13:58.265Z,8.48
2023-05-10T01:16:27.365Z,8.53
2023-05-10T01:18:54.445Z,8.23
2023-05-10T01:21:42.125Z,7.57
2023-05-10T01:24:51.216Z,7.90
2023-05-10T01:27:59.391Z,7.25
2023-05-10T01:31:01.381Z,7.20
2023-05-10T01:33:36.028Z,7.45
2023-05-10T01:36:28.082Z,7.70
2023-05-10T01:39:15.234Z,6.47
2023-05-10T01:41:53.696Z,7.30
2023-05-10T01:44:41.503Z,7.50
2023-05-10T01:47:18.211Z,7.38
2023-05-10T01:49:50.654Z,7.88
2023-05-10T01:52:20.962Z,7.22
2023-05-10T01:54:56.878Z,7.15
2023-05-10T01:57:28.852Z,7.33
2023-05-10T01:59:57.382Z,7.65
2023-05-10T02:02:26.917Z,7.32
2023-05-10T02:04:55.476Z,6.95
2023-05-10T02:07:24.530Z,7.20
2023-05-10T02:09:52.072Z,7.47
2023-05-10T02:12:20.082Z,6.78
2023-05-10T02:14:48.152Z,7.22
2023-05-10T02:17:15.904Z,7.22
2023-05-10T02:19:44.323Z,7.70
2023-05-10T02:22:12.922Z,7.80
2023-05-10T02:24:41.486Z,6.95
2023-05-10T02:27:10.034Z,7.00
2023-05-10T02:29:38.181Z,7.32
2023-05-10T02:32:05.792Z,7.15
2023-05-10T02:34:33.514Z,7.17
2023-05-10T02:37:02.829Z,7.18
2023-05-10T02:39:32.876Z,7.15
2023-05-10T02:42:00.890Z,7.40
2023-05-10T02:44:30.539Z,7.40
2023-05-10T02:46:57.311Z,7.53
2023-05-10T02:49:24.243Z,7.53
2023-05-10T02:51:57.631Z,6.90
2023-05-10T02:54:30.621Z,7.53
2023-05-10T02:57:05.044Z,7.45
2023-05-10T02:59:32.267Z,6.90
2023-05-10T03:02:00.160Z,7.55
2023-05-10T03:04:27.326Z,7.38
2023-05-10T03:06:54.205Z,7.50
2023-05-10T03:09:21.127Z,7.53
2023-05-10T03:12:05.331Z,7.43
2023-05-10T03:14:54.537Z,7.50
2023-05-10T03:17:51.008Z,6.97
2023-05-10T03:20:25.746Z,7.57
2023-05-10T03:23:18.732Z,7.85
2023-05-10T03:25:49.177Z,7.20
2023-05-10T03:28:17.236Z,7.82
2023-05-10T03:30:45.182Z,7.68
2023-05-10T03:33:12.126Z,7.35
2023-05-10T03:35:38.900Z,8.23
2023-05-10T03:38:05.867Z,7.10
2023-05-10T03:40:32.658Z,7.53
2023-05-10T03:43:00.188Z,7.22
2023-05-10T03:45:27.545Z,7.72
2023-05-10T03:47:54.486Z,7.30
2023-05-10T03:50:21.959Z,8.33
2023-05-10T03:52:49.054Z,7.70
2023-05-10T03:55:16.397Z,8.23
2023-05-10T03:57:43.435Z,7.65
2023-05-10T04:00:11.378Z,7.68
2023-05-10T04:02:38.642Z,8.03
2023-05-10T04:05:06.070Z,7.50
2023-05-10T04:07:32.982Z,8.05
2023-05-10T04:09:59.815Z,7.57
2023-05-10T04:12:29.845Z,7.72
2023-05-10T04:14:56.784Z,7.30
2023-05-10T04:17:23.664Z,7.90
2023-05-10T04:19:50.449Z,8.10
2023-05-10T04:22:17.311Z,7.63
2023-05-10T04:24:44.164Z,7.78
2023-05-10T04:27:11.081Z,7.20
2023-05-10T04:29:38.150Z,8.13
2023-05-10T04:32:05.392Z,7.57
2023-05-10T04:34:32.244Z,8.20
2023-05-10T04:36:59.215Z,8.00
2023-05-10T04:39:26.153Z,7.80
2023-05-10T04:41:55.918Z,7.82
2023-05-10T04:44:23.111Z,8.02
2023-05-10T04:46:50.028Z,7.53
2023-05-10T04:49:16.878Z,7.75
2023-05-10T04:51:44.077Z,7.73
2023-05-10T04:54:11.115Z,8.10
2023-05-10T04:56:38.032Z,7.43
2023-05-10T04:59:05.547Z,7.63
2023-05-10T05:01:32.542Z,8.02
2023-05-10T05:03:59.998Z,7.10
2023-05-10T05:06:30.044Z,7.57
2023-05-10T05:08:57.037Z,7.40
2023-05-10T05:11:29.660Z,7.78
2023-05-10T05:13:56.627Z,7.50
2023-05-10T05:16:23.567Z,7.37
2023-05-10T05:18:50.506Z,6.97
2023-05-10T05:21:18.951Z,6.85
2023-05-10T05:23:54.931Z,7.50
2023-05-10T05:26:24.927Z,7.13
2023-05-10T05:28:51.872Z,7.77
2023-05-10T05:31:18.761Z,7.07
2023-05-10T05:33:45.832Z,7.55
2023-05-10T05:36:12.768Z,8.02
2023-05-10T05:38:39.699Z,7.03
2023-05-10T05:41:06.707Z,7.93
2023-05-10T05:43:34.562Z,8.15
2023-05-10T05:46:02.525Z,7.50
2023-05-10T05:48:31.974Z,7.78
2023-05-10T05:50:59.203Z,7.85
2023-05-10T05:53:26.471Z,7.60
2023-05-10T05:55:54.261Z,8.45
2023-05-10T05:58:21.854Z,7.35
2023-05-10T06:00:49.083Z,7.60
2023-05-10T06:03:16.159Z,7.72
2023-05-10T06:05:43.177Z,8.03
2023-05-10T06:08:10.133Z,7.55
2023-05-10T06:10:37.680Z,7.55
2023-05-10T06:13:04.975Z,7.05
2023-05-10T06:15:31.847Z,7.03
2023-05-10T06:17:58.822Z,7.40
2023-05-10T06:20:26.133Z,7.65
2023-05-10T06:22:53.024Z,7.10
2023-05-10T06:25:20.040Z,7.30
2023-05-10T06:27:50.494Z,7.32
2023-05-10T06:30:19.806Z,7.10
2023-05-10T06:32:46.753Z,7.20
2023-05-10T06:35:13.817Z,7.57
2023-05-10T06:37:40.873Z,7.53
2023-05-10T06:40:08.462Z,7.30
2023-05-10T06:42:36.483Z,6.77
2023-05-10T06:45:03.686Z,6.82
2023-05-10T06:47:30.604Z,6.53
2023-05-10T06:49:57.487Z,7.35
2023-05-10T06:52:24.494Z,7.63
2023-05-10T06:54:51.422Z,7.30
2023-05-10T06:57:30.677Z,7.70
2023-05-10T06:59:59.559Z,7.22
2023-05-10T07:02:26.580Z,7.10
2023-05-10T07:04:53.708Z,6.95
2023-05-10T07:07:20.626Z,6.50
2023-05-10T07:09:47.758Z,6.60
2023-05-10T07:12:15.874Z,7.03
2023-05-10T07:14:43.492Z,6.95
2023-05-10T07:17:10.872Z,6.85
2023-05-10T07:19:37.948Z,6.43
2023-05-10T07:22:05.046Z,7.15
2023-05-10T07:24:33.509Z,7.18
2023-05-10T07:27:00.712Z,6.70
2023-05-10T07:29:27.784Z,6.55
2023-05-10T07:31:56.389Z,6.37
2023-05-10T07:34:24.889Z,7.00
2023-05-10T07:36:51.721Z,6.05
2023-05-10T07:39:26.707Z,6.72
2023-05-10T07:41:56.053Z,6.47
2023-05-10T07:44:23.293Z,6.13
2023-05-10T07:46:50.528Z,6.82
2023-05-10T07:49:17.593Z,6.13
2023-05-10T07:51:44.473Z,6.30
2023-05-10T07:54:11.420Z,6.95
2023-05-10T07:56:38.435Z,6.40
2023-05-10T07:59:05.572Z,6.68
2023-05-10T08:01:33.098Z,6.80
2023-05-10T08:04:00.170Z,6.63
2023-05-10T08:06:27.318Z,7.53
2023-05-10T08:08:54.266Z,6.83
2023-05-10T08:11:21.819Z,6.78
2023-05-10T08:13:50.559Z,6.90
2023-05-10T08:16:18.330Z,7.03
2023-05-10T08:18:47.111Z,7.93
2023-05-10T08:21:15.063Z,7.10
2023-05-10T08:23:42.104Z,6.55
2023-05-10T08:26:08.972Z,7.35
2023-05-10T08:28:35.882Z,7.40
2023-05-10T08:31:02.715Z,7.82
2023-05-10T08:33:29.749Z,8.23
2023-05-10T08:35:56.550Z,8.68
2023-05-10T08:38:23.403Z,9.57
2023-05-10T08:40:50.912Z,7.00
2023-05-10T08:43:17.760Z,7.40
2023-05-10T08:45:46.170Z,7.07
2023-05-10T08:48:13.294Z,6.50
2023-05-10T08:50:42.122Z,8.10
2023-05-10T08:53:14.618Z,8.00
2023-05-10T08:55:42.003Z,7.47
2023-05-10T08:58:09.564Z,6.83
2023-05-10T09:00:37.463Z,8.15
2023-05-10T09:03:05.675Z,9.00
2023-05-10T09:05:32.686Z,8.20
2023-05-10T09:07:59.665Z,7.10
2023-05-10T09:10:27.268Z,7.50
2023-05-10T09:12:54.950Z,7.47
2023-05-10T09:15:21.962Z,7.32
2023-05-10T09:17:50.608Z,7.70
2023-05-10T09:20:17.676Z,6.97
2023-05-10T09:22:45.069Z,7.53
2023-05-10T09:25:16.097Z,7.75
2023-05-10T09:27:47.693Z,7.63
2023-05-10T09:30:24.168Z,7.80
2023-05-10T09:32:51.362Z,7.97
2023-05-10T09:35:21.015Z,9.80
2023-05-10T09:37:50.237Z,6.90
2023-05-10T09:40:19.290Z,8.07
2023-05-10T09:42:57.704Z,7.20
2023-05-10T09:45:26.552Z,6.63
2023-05-10T09:47:53.794Z,7.00
2023-05-10T09:50:22.003Z,6.90
2023-05-10T09:53:02.203Z,6.82
2023-05-10T09:55:42.554Z,6.57
2023-05-10T09:58:09.476Z,6.35
2023-05-10T10:00:41.859Z,5.20
2023-05-10T10:03:15.123Z,5.18
2023-05-10T10:05:43.657Z,6.78
2023-05-10T10:08:11.434Z,8.20
2023-05-10T10:10:38.818Z,8.75
2023-05-10T10:13:05.775Z,7.97
2023-05-10T10:15:34.514Z,9.10
2023-05-10T10:18:01.938Z,7.60
2023-05-10T10:20:29.333Z,7.53
2023-05-10T10:22:56.296Z,7.78
2023-05-10T10:25:24.022Z,8.40
2023-05-10T10:27:53.611Z,8.35
2023-05-10T10:30:48.270Z,8.68
2023-05-10T10:33:36.386Z,8.68
2023-05-10T10:36:05.188Z,7.68
2023-05-10T10:39:01.865Z,7.77
2023-05-10T10:41:34.588Z,8.80
2023-05-10T10:44:27.432Z,8.80
2023-05-10T10:47:12.848Z,7.78
2023-05-10T10:49:45.228Z,7.72
2023-05-10T10:52:26.658Z,7.47
2023-05-10T10:55:00.650Z,8.55
2023-05-10T10:57:28.303Z,9.00
2023-05-10T11:00:22.540Z,7.43
2023-05-10T11:02:59.044Z,8.10
2023-05-10T11:05:29.920Z,8.53
2023-05-10T11:07:58.783Z,7.90
2023-05-10T11:10:29.251Z,8.38
2023-05-10T11:13:11.572Z,8.10
2023-05-10T11:15:41.781Z,7.60
2023-05-10T11:18:31.467Z,8.20
2023-05-10T11:21:02.803Z,8.35
2023-05-10T11:23:33.188Z,9.32
2023-05-10T11:26:01.768Z,8.27
2023-05-10T11:28:28.772Z,8.23
2023-05-10T11:30:55.999Z,8.40
2023-05-10T11:33:22.886Z,7.35
2023-05-10T11:35:49.784Z,8.93
2023-05-10T11:38:16.721Z,8.10
2023-05-10T11:40:44.464Z,8.77
2023-05-10T11:43:11.499Z,6.90
2023-05-10T11:45:38.487Z,8.57
2023-05-10T11:48:05.749Z,8.43
2023-05-10T11:50:32.663Z,8.07
2023-05-10T11:52:59.550Z,7.93
2023-05-10T11:55:26.409Z,9.23
2023-05-10T11:58:01.120Z,9.40
2023-05-10T12:00:28.319Z,8.32
2023-05-10T12:02:55.489Z,7.97
2023-05-10T12:05:23.125Z,7.82
2023-05-10T12:07:49.850Z,8.17
2023-05-10T12:10:16.839Z,7.55
2023-05-10T12:12:45.860Z,8.20
2023-05-10T12:15:23.938Z,7.80
2023-05-10T12:17:51.594Z,7.80
2023-05-10T12:20:21.296Z,8.07
2023-05-10T12:22:52.036Z,8.98
2023-05-10T12:25:21.043Z,8.52
2023-05-10T12:27:53.503Z,8.82
2023-05-10T12:30:31.163Z,8.57
2023-05-10T12:33:12.124Z,10.13
2023-05-10T12:35:53.337Z,8.63
2023-05-10T12:38:26.704Z,8.90
2023-05-10T12:40:53.601Z,9.48
2023-05-10T12:43:20.509Z,9.82
2023-05-10T12:45:48.707Z,10.43
2023-05-10T12:48:16.351Z,9.52
2023-05-10T12:50:43.223Z,8.32
2023-05-10T12:53:10.051Z,8.48
2023-05-10T12:55:36.805Z,8.70
2023-05-10T12:58:03.535Z,8.90
2023-05-10T13:00:30.351Z,7.75
2023-05-10T13:02:57.276Z,8.50
2023-05-10T13:05:24.159Z,9.05
2023-05-10T13:07:51.117Z,8.60
2023-05-10T13:10:19.908Z,8.97
2023-05-10T13:12:46.871Z,8.60
2023-05-10T13:15:13.706Z,8.98
2023-05-10T13:17:40.539Z,8.73
2023-05-10T13:20:07.986Z,9.02
2023-05-10T13:22:40.383Z,8.53
2023-05-10T13:25:08.156Z,9.10
2023-05-10T13:27:34.922Z,8.88
2023-05-10T13:30:02.308Z,8.05
2023-05-10T13:32:29.203Z,8.20
2023-05-10T13:34:56.821Z,7.47
2023-05-10T13:37:23.674Z,8.48
2023-05-10T13:39:50.476Z,8.05
2023-05-10T13:42:17.353Z,8.40
2023-05-10T13:44:44.126Z,7.20
2023-05-10T13:47:10.983Z,7.30
2023-05-10T13:49:37.917Z,7.20
2023-05-10T13:52:05.147Z,7.53
2023-05-10T13:54:32.000Z,6.68
2023-05-10T13:56:58.946Z,7.43
2023-05-10T13:59:28.495Z,6.90
2023-05-10T14:01:55.487Z,7.50
2023-05-10T14:04:22.386Z,8.15
2023-05-10T14:06:49.291Z,7.88
2023-05-10T14:09:16.144Z,7.25
2023-05-10T14:11:43.283Z,7.47
2023-05-10T14:14:10.846Z,6.60
2023-05-10T14:16:37.729Z,6.90
2023-05-10T14:19:04.849Z,6.88
2023-05-10T14:21:31.922Z,7.70
2023-05-10T14:23:58.817Z,7.03
2023-05-10T14:26:25.806Z,6.97
2023-05-10T14:28:52.787Z,7.40
2023-05-10T14:31:19.815Z,7.10
2023-05-10T14:33:47.113Z,7.03
2023-05-10T14:36:14.589Z,6.67
2023-05-10T14:38:41.960Z,6.15
2023-05-10T14:41:10.639Z,5.75
2023-05-10T14:43:38.683Z,5.97
2023-05-10T14:46:05.493Z,5.65
2023-05-10T14:48:32.565Z,5.60
2023-05-10T14:50:59.646Z,6.25
2023-05-10T14:53:26.476Z,6.18
2023-05-10T14:55:53.532Z,5.68
2023-05-10T14:58:20.778Z,5.90
2023-05-10T15:00:47.694Z,6.33
2023-05-10T15:03:15.761Z,6.63
2023-05-10T15:05:43.460Z,6.13
2023-05-10T15:08:13.104Z,24.05
2023-05-10T15:10:40.733Z,5.80
2023-05-10T15:13:07.671Z,5.80
2023-05-10T15:15:34.555Z,6.40
2023-05-10T15:18:03.499Z,6.30
2023-05-10T15:20:33.557Z,6.43
2023-05-10T15:23:00.506Z,6.18
2023-05-10T15:25:27.734Z,6.50
2023-05-10T15:27:57.459Z,6.53
2023-05-10T15:30:27.877Z,6.45
2023-05-10T15:32:54.835Z,6.30
2023-05-10T15:35:22.026Z,6.20
2023-05-10T15:37:51.167Z,6.30
2023-05-10T15:40:21.309Z,6.15
2023-05-10T15:42:48.238Z,6.38
2023-05-10T15:45:18.797Z,6.18
2023-05-10T15:47:46.265Z,6.50
2023-05-10T15:50:13.368Z,7.07
2023-05-10T15:52:40.366Z,5.80
2023-05-10T15:55:07.974Z,5.57
2023-05-10T15:57:37.477Z,5.88
2023-05-10T16:00:04.887Z,5.78
2023-05-10T16:02:32.702Z,5.27
2023-05-10T16:04:59.687Z,5.47
2023-05-10T16:07:26.702Z,5.38
2023-05-10T16:09:53.669Z,5.72
2023-05-10T16:12:20.803Z,5.70
2023-05-10T16:14:48.710Z,5.40
2023-05-10T16:17:19.269Z,5.15
2023-05-10T16:19:55.562Z,5.50
2023-05-10T16:22:34.892Z,5.90
2023-05-10T16:25:02.170Z,6.03
2023-05-10T16:27:29.029Z,5.47
2023-05-10T16:29:56.595Z,5.05
2023-05-10T16:32:23.681Z,5.72
2023-05-10T16:34:50.656Z,5.20
2023-05-10T16:37:17.655Z,6.00
2023-05-10T16:39:44.920Z,5.60
2023-05-10T16:42:11.802Z,5.32
2023-05-10T16:44:38.963Z,5.38
2023-05-10T16:47:06.097Z,5.15
2023-05-10T16:49:33.380Z,5.28
2023-05-10T16:52:03.599Z,5.20
2023-05-10T16:54:30.544Z,5.53
2023-05-10T16:56:57.524Z,5.55
2023-05-10T16:59:27.320Z,5.78
2023-05-10T17:01:55.084Z,5.60
2023-05-10T17:04:22.060Z,5.50
2023-05-10T17:06:49.256Z,4.90
2023-05-10T17:09:16.318Z,5.60
2023-05-10T17:11:43.369Z,5.70
2023-05-10T17:14:10.321Z,5.97
2023-05-10T17:16:37.427Z,5.50
2023-05-10T17:19:04.367Z,5.35
2023-05-10T17:21:31.347Z,5.40
2023-05-10T17:23:58.529Z,5.97
2023-05-10T17:26:28.745Z,4.85
2023-05-10T17:28:56.077Z,5.17
2023-05-10T17:31:26.528Z,5.30
2023-05-10T17:33:53.848Z,5.80
2023-05-10T17:36:23.479Z,5.80
2023-05-10T17:38:50.520Z,6.38
2023-05-10T17:41:17.954Z,5.73
2023-05-10T17:43:45.077Z,5.30
2023-05-10T17:46:12.070Z,5.53
2023-05-10T17:48:39.418Z,5.25
2023-05-10T17:51:06.645Z,5.28
2023-05-10T17:53:34.613Z,5.77
2023-05-10T17:56:01.815Z,5.53
2023-05-10T17:58:29.148Z,5.70
2023-05-10T18:00:56.550Z,5.53
2023-05-10T18:03:23.961Z,6.07
2023-05-10T18:05:54.131Z,6.30
2023-05-10T18:08:21.467Z,6.00
2023-05-10T18:10:51.663Z,6.13
2023-05-10T18:13:18.881Z,5.82
2023-05-10T18:15:46.095Z,5.40
2023-05-10T18:18:14.684Z,5.43
2023-05-10T18:20:41.684Z,4.88
2023-05-10T18:23:08.740Z,5.22
2023-05-10T18:25:36.020Z,6.30
2023-05-10T18:28:03.134Z,6.40
2023-05-10T18:30:30.804Z,5.90
2023-05-10T18:32:58.317Z,5.43
2023-05-10T18:35:25.950Z,5.88
2023-05-10T18:37:53.007Z,5.78
2023-05-10T18:40:20.456Z,5.40
2023-05-10T18:42:47.517Z,4.30
2023-05-10T18:45:14.985Z,4.57
2023-05-10T18:47:42.491Z,5.00
2023-05-10T18:50:12.115Z,4.63
2023-05-10T18:52:41.883Z,4.20
2023-05-10T18:55:09.801Z,4.63
2023-05-10T18:57:36.790Z,4.97
2023-05-10T19:00:04.140Z,5.28
2023-05-10T19:02:31.316Z,4.72
2023-05-10T19:04:58.419Z,4.60
2023-05-10T19:07:31.613Z,5.07
2023-05-10T19:09:58.809Z,5.28
2023-05-10T19:12:31.697Z,4.80
2023-05-10T19:14:59.109Z,5.05
2023-05-10T19:17:26.698Z,5.22
2023-05-10T19:19:56.171Z,4.73
2023-05-10T19:25:00.235Z,5.30
2023-05-10T19:27:27.690Z,5.10
2023-05-10T19:29:56.685Z,5.03
2023-05-10T19:32:25.755Z,4.77
2023-05-10T19:35:00.184Z,4.32
2023-05-10T19:37:31.346Z,4.50
2023-05-10T19:40:01.686Z,3.92
2023-05-10T19:42:30.082Z,4.25
2023-05-10T19:44:59.672Z,3.93
2023-05-10T19:47:27.490Z,3.83
2023-05-10T19:49:54.902Z,4.00
2023-05-10T19:52:27.141Z,3.67
2023-05-10T19:54:54.364Z,4.10
2023-05-10T19:57:22.018Z,3.57
2023-05-10T19:59:51.653Z,3.80
2023-05-10T20:02:21.639Z,3.63
2023-05-10T20:04:50.954Z,3.53
2023-05-10T20:07:21.334Z,2.65
2023-05-10T20:09:48.677Z,2.67
2023-05-10T20:12:16.025Z,2.25
2023-05-10T20:14:43.370Z,2.55
2023-05-10T20:17:12.429Z,2.15
2023-05-10T20:19:39.697Z,2.90
2023-05-10T20:22:09.055Z,10.57
2023-05-10T20:24:37.272Z,12.73
2023-05-10T20:27:06.198Z,15.75
2023-05-10T20:29:33.751Z,15.60
2023-05-10T20:32:01.220Z,3.03
2023-05-10T20:34:28.631Z,4.30
2023-05-10T20:36:55.806Z,2.45
2023-05-10T20:39:22.898Z,2.15
2023-05-10T20:41:50.023Z,2.30
2023-05-10T20:44:17.385Z,2.63
2023-05-10T20:46:44.494Z,2.80
2023-05-10T20:49:11.704Z,2.63
2023-05-10T20:51:42.777Z,2.55
2023-05-10T20:54:10.654Z,2.28
2023-05-10T20:56:39.407Z,2.70
2023-05-10T20:59:09.831Z,2.93
2023-05-10T21:01:39.742Z,2.10
2023-05-10T21:04:09.026Z,2.40
2023-05-10T21:06:36.614Z,2.20
2023-05-10T21:09:04.125Z,2.42
2023-05-10T21:11:35.362Z,2.20
2023-05-10T21:14:03.079Z,2.20
2023-05-10T21:16:30.228Z,2.30
2023-05-10T21:18:57.317Z,2.20
2023-05-10T21:21:24.498Z,2.15
2023-05-10T21:23:51.465Z,2.00
2023-05-10T21:26:18.531Z,2.15
2023-05-10T21:28:46.276Z,2.00
2023-05-10T21:31:13.243Z,2.20
2023-05-10T21:33:40.876Z,2.05
2023-05-10T21:36:07.851Z,2.10
2023-05-10T21:38:35.028Z,2.05
2023-05-10T21:41:02.053Z,2.03
2023-05-10T21:43:29.038Z,2.30
2023-05-10T21:45:56.189Z,2.22
2023-05-10T21:48:23.258Z,2.20
2023-05-10T21:50:50.105Z,2.17
2023-05-10T21:53:17.019Z,2.30
2023-05-10T21:55:44.114Z,2.28
2023-05-10T21:58:11.030Z,2.20
2023-05-10T22:00:37.911Z,2.30
2023-05-10T22:03:05.081Z,2.58
2023-05-10T22:05:31.922Z,2.20
2023-05-10T22:07:58.806Z,2.10
2023-05-10T22:10:25.779Z,2.38
2023-05-10T22:12:52.662Z,2.50
2023-05-10T22:15:19.583Z,2.40
2023-05-10T22:17:46.677Z,2.70
2023-05-10T22:20:13.669Z,2.40
2023-05-10T22:22:40.515Z,2.72
2023-05-10T22:25:07.882Z,2.60
2023-05-10T22:27:35.107Z,2.40
2023-05-10T22:30:02.368Z,2.40
2023-05-10T22:32:29.461Z,2.60
2023-05-10T22:34:56.385Z,2.58
2023-05-10T22:37:23.385Z,2.50
2023-05-10T22:39:50.387Z,2.40
2023-05-10T22:42:17.320Z,2.35
2023-05-10T22:44:44.140Z,2.25
2023-05-10T22:47:11.187Z,2.00
2023-05-10T22:49:38.243Z,2.40
2023-05-10T22:52:05.128Z,2.40
2023-05-10T22:54:33.698Z,2.30
2023-05-10T22:57:01.875Z,2.50
2023-05-10T22:59:28.919Z,2.30
2023-05-10T23:01:56.117Z,2.33
2023-05-10T23:04:23.048Z,2.33
2023-05-10T23:06:49.914Z,2.58
2023-05-10T23:09:17.137Z,2.25
2023-05-10T23:11:44.166Z,2.38
2023-05-10T23:14:10.988Z,2.40
2023-05-10T23:16:38.181Z,2.22
2023-05-10T23:19:05.227Z,2.40
2023-05-10T23:21:32.361Z,2.40
2023-05-10T23:23:59.362Z,2.53
2023-05-10T23:26:26.313Z,2.70
2023-05-10T23:28:53.150Z,2.28
2023-05-10T23:31:20.132Z,2.30
2023-05-10T23:33:47.066Z,2.08
2023-05-10T23:36:13.905Z,2.22
2023-05-10T23:38:40.821Z,2.73
2023-05-10T23:41:07.678Z,2.60
2023-05-10T23:43:34.645Z,2.33
2023-05-10T23:46:01.987Z,2.50
2023-05-10T23:48:29.001Z,2.60
2023-05-10T23:50:55.910Z,2.50
2023-05-10T23:53:22.831Z,2.50
2023-05-10T23:55:49.683Z,2.55
2023-05-10T23:58:16.605Z,2.85
